createdAt,value
2018-01-12T00:01:23.292Z,9.20
2018-01-12T00:03:51.640Z,9.15
2018-01-12T00:06:20.088Z,8.99
2018-01-12T00:08:48.484Z,8.72
2018-01-12T00:11:16.827Z,9.06
2018-01-12T00:13:45.215Z,8.97
2018-01-12T00:16:13.603Z,8.90
2018-01-12T00:18:41.992Z,9.17
2018-01-12T00:21:10.466Z,8.45
2018-01-12T00:23:38.949Z,8.33
2018-01-12T00:26:07.315Z,8.43
2018-01-12T00:28:35.700Z,8.60
2018-01-12T00:31:04.056Z,8.48
2018-01-12T00:33:32.406Z,8.33
2018-01-12T00:36:01.178Z,8.81
2018-01-12T00:38:30.300Z,8.65
2018-01-12T00:40:58.643Z,8.99
2018-01-12T00:43:27.020Z,8.99
2018-01-12T00:45:55.388Z,8.80
2018-01-12T00:48:23.764Z,9.12
2018-01-12T00:50:52.416Z,9.08
2018-01-12T00:53:20.788Z,8.71
2018-01-12T00:55:49.156Z,8.75
2018-01-12T00:58:17.510Z,8.64
2018-01-12T01:00:46.268Z,8.66
2018-01-12T01:03:14.851Z,8.35
2018-01-12T01:05:43.224Z,8.86
2018-01-12T01:08:11.588Z,8.51
2018-01-12T01:10:39.954Z,8.73
2018-01-12T01:13:08.308Z,8.77
2018-01-12T01:15:37.763Z,8.07
2018-01-12T01:18:06.435Z,8.48
2018-01-12T01:20:34.837Z,8.79
2018-01-12T01:23:03.388Z,8.50
2018-01-12T01:25:31.749Z,8.79
2018-01-12T01:28:00.164Z,8.90
2018-01-12T01:30:28.528Z,8.77
2018-01-12T01:32:56.893Z,8.59
2018-01-12T01:35:25.262Z,8.58
2018-01-12T01:37:53.804Z,8.75
2018-01-12T01:40:22.175Z,8.31
2018-01-12T01:42:50.534Z,8.52
2018-01-12T01:45:19.028Z,8.39
2018-01-12T01:47:47.387Z,8.14
2018-01-12T01:50:15.783Z,8.62
2018-01-12T01:52:44.152Z,8.67
2018-01-12T01:55:12.499Z,8.66
2018-01-12T01:57:41.021Z,8.79
2018-01-12T02:00:09.372Z,8.84
2018-01-12T02:02:37.728Z,9.03
2018-01-12T02:05:06.539Z,9.11
2018-01-12T02:07:34.900Z,8.72
2018-01-12T02:10:03.642Z,9.01
2018-01-12T02:12:32.013Z,8.97
2018-01-12T02:15:00.393Z,8.96
2018-01-12T02:17:28.768Z,9.02
2018-01-12T02:19:57.118Z,9.00
2018-01-12T02:22:25.536Z,8.93
2018-01-12T02:24:54.004Z,9.15
2018-01-12T02:27:22.388Z,9.32
2018-01-12T02:29:50.768Z,9.15
2018-01-12T02:32:19.135Z,9.01
2018-01-12T02:34:47.489Z,9.05
2018-01-12T02:37:15.906Z,9.15
2018-01-12T02:39:44.280Z,8.81
2018-01-12T02:42:12.780Z,8.46
2018-01-12T02:44:41.926Z,8.27
2018-01-12T02:47:10.331Z,8.62
2018-01-12T02:49:38.708Z,9.01
2018-01-12T02:52:07.061Z,8.81
2018-01-12T02:54:35.432Z,8.65
2018-01-12T02:57:03.866Z,8.92
2018-01-12T02:59:32.218Z,9.01
2018-01-12T03:02:00.573Z,9.38
2018-01-12T03:04:28.991Z,8.41
2018-01-12T03:06:57.368Z,8.53
2018-01-12T03:09:25.712Z,8.20
2018-01-12T03:11:54.088Z,8.40
2018-01-12T03:14:22.508Z,8.66
2018-01-12T03:16:50.880Z,8.87
2018-01-12T03:19:19.307Z,8.82
2018-01-12T03:21:48.040Z,8.23
2018-01-12T03:24:16.401Z,8.42
2018-01-12T03:26:44.769Z,8.47
2018-01-12T03:29:13.160Z,8.97
2018-01-12T03:31:41.568Z,8.25
2018-01-12T03:34:09.936Z,8.28
2018-01-12T03:36:38.289Z,8.40
2018-01-12T03:39:06.696Z,8.68
2018-01-12T03:41:35.051Z,8.12
2018-01-12T03:44:03.440Z,8.41
2018-01-12T03:46:31.793Z,8.29
2018-01-12T03:49:00.627Z,8.49
2018-01-12T03:51:28.988Z,8.80
2018-01-12T03:53:57.376Z,8.60
2018-01-12T03:56:25.747Z,8.19
2018-01-12T03:58:54.144Z,8.04
2018-01-12T04:01:22.516Z,7.95
2018-01-12T04:03:50.892Z,7.95
2018-01-12T04:06:19.283Z,7.79
2018-01-12T04:08:47.759Z,7.71
2018-01-12T04:11:16.112Z,7.65
2018-01-12T04:13:44.475Z,7.56
2018-01-12T04:16:12.840Z,7.95
2018-01-12T04:18:41.196Z,7.91
2018-01-12T04:21:09.593Z,7.85
2018-01-12T04:23:38.444Z,7.46
2018-01-12T04:26:06.800Z,7.46
2018-01-12T04:28:35.195Z,7.60
2018-01-12T04:31:03.600Z,7.58
2018-01-12T04:33:31.979Z,7.55
2018-01-12T04:36:00.435Z,7.66
2018-01-12T04:38:28.812Z,7.61
2018-01-12T04:40:57.205Z,7.87
2018-01-12T04:43:25.555Z,8.09
2018-01-12T04:45:53.962Z,7.78
2018-01-12T04:48:22.320Z,7.59
2018-01-12T04:50:50.697Z,7.53
2018-01-12T04:53:19.056Z,7.55
2018-01-12T04:55:47.527Z,7.44
2018-01-12T04:58:16.364Z,7.31
2018-01-12T05:00:45.606Z,7.84
2018-01-12T05:03:14.031Z,7.42
2018-01-12T05:05:42.428Z,7.07
2018-01-12T05:08:10.793Z,7.50
2018-01-12T05:10:39.168Z,8.11
2018-01-12T05:13:07.524Z,7.81
2018-01-12T05:15:35.950Z,7.70
2018-01-12T05:18:04.300Z,7.68
2018-01-12T05:20:32.680Z,7.92
2018-01-12T05:23:01.086Z,7.80
2018-01-12T05:25:29.546Z,7.60
2018-01-12T05:27:57.892Z,7.40
2018-01-12T05:30:26.259Z,7.69
2018-01-12T05:32:55.000Z,7.26
2018-01-12T05:35:23.369Z,7.55
2018-01-12T05:37:51.748Z,7.47
2018-01-12T05:40:20.205Z,6.94
2018-01-12T05:42:48.560Z,7.33
2018-01-12T05:45:17.336Z,7.61
2018-01-12T05:47:46.202Z,7.95
2018-01-12T05:50:14.661Z,7.32
2018-01-12T05:52:43.050Z,7.67
2018-01-12T05:55:11.657Z,7.36
2018-01-12T05:57:40.095Z,7.24
2018-01-12T06:00:08.488Z,7.06
2018-01-12T06:02:54.676Z,6.70
2018-01-12T06:05:41.016Z,6.87
2018-01-12T06:08:09.363Z,7.15
2018-01-12T06:10:37.727Z,7.52
2018-01-12T06:13:06.137Z,7.08
2018-01-12T06:15:34.495Z,6.94
2018-01-12T06:18:02.858Z,7.33
2018-01-12T06:20:31.255Z,7.73
2018-01-12T06:22:59.621Z,7.66
2018-01-12T06:25:27.985Z,7.63
2018-01-12T06:27:56.354Z,7.83
2018-01-12T06:30:24.780Z,7.18
2018-01-12T06:32:53.148Z,7.30
2018-01-12T06:35:21.510Z,6.82
2018-01-12T06:37:49.899Z,6.91
2018-01-12T06:40:18.268Z,6.96
2018-01-12T06:42:46.661Z,6.95
2018-01-12T06:45:15.024Z,6.83
2018-01-12T06:47:43.376Z,6.73
2018-01-12T06:50:12.216Z,6.77
2018-01-12T06:52:40.580Z,6.88
2018-01-12T06:55:08.931Z,7.05
2018-01-12T06:57:37.911Z,6.87
2018-01-12T07:00:06.714Z,6.75
2018-01-12T07:02:35.168Z,6.51
2018-01-12T07:05:03.612Z,6.45
2018-01-12T07:07:32.022Z,6.85
2018-01-12T07:10:00.380Z,6.69
2018-01-12T07:12:28.735Z,6.50
2018-01-12T07:14:57.135Z,6.31
2018-01-12T07:17:25.714Z,6.43
2018-01-12T07:19:54.067Z,6.94
2018-01-12T07:22:27.787Z,6.89
2018-01-12T07:24:56.159Z,6.87
2018-01-12T07:27:24.573Z,7.21
2018-01-12T07:29:52.892Z,6.71
2018-01-12T07:32:21.419Z,7.46
2018-01-12T07:34:49.783Z,7.31
2018-01-12T07:37:18.144Z,7.30
2018-01-12T07:39:46.491Z,7.43
2018-01-12T07:42:15.329Z,7.66
2018-01-12T07:44:43.676Z,7.05
2018-01-12T07:47:12.096Z,7.20
2018-01-12T07:49:40.455Z,7.21
2018-01-12T07:52:08.849Z,7.23
2018-01-12T07:54:37.245Z,7.27
2018-01-12T07:57:05.735Z,7.14
2018-01-12T07:59:34.089Z,7.19
2018-01-12T08:02:07.961Z,7.37
2018-01-12T08:04:36.323Z,7.01
2018-01-12T08:07:05.435Z,7.11
2018-01-12T08:09:33.781Z,7.36
2018-01-12T08:12:02.136Z,7.20
2018-01-12T08:14:30.493Z,7.46
2018-01-12T08:16:58.860Z,7.58
2018-01-12T08:19:27.214Z,6.91
2018-01-12T08:21:56.052Z,7.11
2018-01-12T08:24:24.424Z,7.06
2018-01-12T08:26:52.789Z,6.82
2018-01-12T08:29:21.196Z,6.88
2018-01-12T08:31:49.660Z,6.98
2018-01-12T08:34:18.038Z,6.81
2018-01-12T08:36:46.396Z,7.11
2018-01-12T08:39:14.803Z,6.89
2018-01-12T08:41:43.174Z,7.19
2018-01-12T08:44:11.514Z,7.19
2018-01-12T08:46:40.299Z,7.34
2018-01-12T08:49:09.890Z,6.85
2018-01-12T08:51:38.655Z,7.04
2018-01-12T08:54:07.051Z,7.24
2018-01-12T08:56:35.400Z,7.25
2018-01-12T08:59:03.780Z,7.36
2018-01-12T09:01:32.264Z,7.11
2018-01-12T09:04:00.615Z,7.42
2018-01-12T09:06:28.967Z,7.62
2018-01-12T09:08:58.413Z,7.60
2018-01-12T09:11:26.771Z,7.51
2018-01-12T09:13:57.254Z,7.76
2018-01-12T09:16:28.735Z,7.32
2018-01-12T09:19:29.269Z,7.34
2018-01-12T09:21:58.101Z,7.24
2018-01-12T09:24:26.438Z,7.67
2018-01-12T09:26:54.857Z,7.66
2018-01-12T09:29:23.236Z,8.05
2018-01-12T09:31:52.442Z,7.87
2018-01-12T09:34:38.519Z,7.66
2018-01-12T09:37:06.872Z,7.74
2018-01-12T09:39:43.266Z,7.96
2018-01-12T09:42:11.623Z,7.45
2018-01-12T09:44:40.031Z,7.89
2018-01-12T09:47:21.898Z,8.06
2018-01-12T09:49:50.277Z,7.55
2018-01-12T09:52:18.685Z,7.33
2018-01-12T09:54:47.141Z,7.57
2018-01-12T09:57:15.550Z,7.61
2018-01-12T09:59:44.695Z,8.01
2018-01-12T10:02:13.563Z,7.67
2018-01-12T10:04:41.916Z,7.56
2018-01-12T10:07:19.913Z,7.63
2018-01-12T10:09:50.149Z,7.21
2018-01-12T10:12:18.465Z,7.11
2018-01-12T10:14:47.302Z,7.60
2018-01-12T10:17:15.745Z,7.13
2018-01-12T10:23:04.178Z,6.74
2018-01-12T10:25:32.633Z,7.54
2018-01-12T10:28:00.984Z,7.09
2018-01-12T10:30:34.717Z,7.50
2018-01-12T10:33:08.553Z,7.43
2018-01-12T10:38:38.004Z,7.56
2018-01-12T10:41:18.816Z,7.95
2018-01-12T10:43:47.168Z,7.62
2018-01-12T10:46:35.235Z,7.25
2018-01-12T10:49:19.184Z,7.44
2018-01-12T10:51:47.871Z,7.76
2018-01-12T10:54:16.217Z,7.21
2018-01-12T10:56:44.574Z,7.56
2018-01-12T10:59:12.950Z,7.72
2018-01-12T11:01:41.694Z,7.94
2018-01-12T11:04:10.078Z,7.47
2018-01-12T11:06:38.431Z,7.84
2018-01-12T11:09:06.779Z,7.90
2018-01-12T11:11:35.129Z,7.33
2018-01-12T11:14:03.489Z,7.29
2018-01-12T11:16:31.851Z,7.75
2018-01-12T11:19:00.187Z,7.76
2018-01-12T11:21:29.023Z,7.65
2018-01-12T11:23:57.398Z,7.90
2018-01-12T11:26:25.751Z,8.04
2018-01-12T11:28:54.095Z,7.88
2018-01-12T11:31:22.517Z,7.87
2018-01-12T11:33:50.921Z,8.10
2018-01-12T11:36:19.287Z,8.17
2018-01-12T11:38:47.627Z,8.14
2018-01-12T11:41:16.470Z,7.98
2018-01-12T11:43:44.820Z,7.99
2018-01-12T11:46:13.215Z,7.79
2018-01-12T11:48:41.572Z,7.75
2018-01-12T11:51:09.929Z,7.41
2018-01-12T11:53:38.763Z,7.27
2018-01-12T11:56:07.116Z,7.63
2018-01-12T11:58:35.528Z,8.04
2018-01-12T12:01:03.892Z,7.81
2018-01-12T12:03:32.261Z,7.83
2018-01-12T12:06:00.607Z,8.14
2018-01-12T12:08:29.035Z,8.28
2018-01-12T12:10:57.496Z,8.01
2018-01-12T12:13:25.852Z,7.97
2018-01-12T12:15:54.691Z,8.06
2018-01-12T12:18:23.064Z,8.19
2018-01-12T12:20:51.464Z,7.94
2018-01-12T12:23:19.868Z,7.93
2018-01-12T12:25:48.625Z,7.81
2018-01-12T12:28:16.999Z,7.66
2018-01-12T12:30:45.371Z,7.60
2018-01-12T12:33:13.715Z,7.57
2018-01-12T12:35:42.228Z,7.47
2018-01-12T12:38:10.575Z,7.65
2018-01-12T12:40:38.933Z,7.45
2018-01-12T12:43:07.674Z,7.76
2018-01-12T12:45:36.032Z,7.25
2018-01-12T12:48:04.427Z,7.36
2018-01-12T12:50:32.838Z,7.47
2018-01-12T12:53:01.265Z,7.47
2018-01-12T12:55:29.633Z,7.74
2018-01-12T12:57:58.046Z,8.25
2018-01-12T13:00:26.408Z,8.20
2018-01-12T13:02:54.763Z,7.94
2018-01-12T13:05:23.598Z,8.14
2018-01-12T13:07:52.053Z,8.24
2018-01-12T13:10:20.457Z,8.14
2018-01-12T13:12:48.804Z,8.39
2018-01-12T13:15:17.161Z,8.01
2018-01-12T13:17:45.905Z,8.41
2018-01-12T13:20:14.271Z,8.34
2018-01-12T13:22:42.615Z,8.17
2018-01-12T13:25:11.051Z,8.53
2018-01-12T13:27:39.432Z,8.57
2018-01-12T13:30:07.903Z,8.26
2018-01-12T13:32:36.251Z,8.05
2018-01-12T13:35:04.626Z,7.83
2018-01-12T13:37:32.970Z,7.88
2018-01-12T13:40:01.870Z,8.36
2018-01-12T13:42:30.685Z,8.46
2018-01-12T13:44:59.064Z,8.33
2018-01-12T13:47:27.427Z,8.16
2018-01-12T13:49:55.839Z,7.50
2018-01-12T13:52:24.199Z,7.71
2018-01-12T13:54:52.594Z,7.80
2018-01-12T13:57:20.962Z,7.27
2018-01-12T13:59:49.360Z,7.47
2018-01-12T14:02:17.789Z,7.64
2018-01-12T14:04:46.631Z,8.07
2018-01-12T14:07:14.984Z,8.49
2018-01-12T14:09:43.338Z,8.54
2018-01-12T14:12:12.115Z,8.26
2018-01-12T14:14:40.987Z,7.58
2018-01-12T14:17:09.359Z,7.52
2018-01-12T14:19:37.710Z,7.61
2018-01-12T14:22:06.074Z,7.68
2018-01-12T14:24:34.428Z,7.74
2018-01-12T14:27:03.262Z,7.58
2018-01-12T14:29:31.618Z,7.85
2018-01-12T14:32:00.026Z,7.25
2018-01-12T14:34:28.482Z,7.42
2018-01-12T14:36:56.843Z,7.44
2018-01-12T14:39:25.677Z,7.44
2018-01-12T14:41:54.042Z,7.55
2018-01-12T14:44:22.489Z,7.40
2018-01-12T14:46:50.818Z,7.09
2018-01-12T14:49:19.179Z,7.14
2018-01-12T14:51:47.527Z,7.21
2018-01-12T14:54:15.880Z,7.34
2018-01-12T14:56:44.229Z,7.08
2018-01-12T14:59:12.579Z,7.75
2018-01-12T15:01:40.991Z,7.52
2018-01-12T15:04:09.379Z,7.10
2018-01-12T15:06:37.750Z,7.57
2018-01-12T15:09:06.115Z,7.64
2018-01-12T15:11:34.496Z,7.32
2018-01-12T15:14:02.844Z,7.00
2018-01-12T15:16:31.253Z,7.53
2018-01-12T15:18:59.598Z,7.06
2018-01-12T15:21:27.989Z,7.83
2018-01-12T15:23:56.382Z,7.55
2018-01-12T15:26:24.735Z,7.53
2018-01-12T15:28:53.091Z,7.37
2018-01-12T15:31:21.935Z,7.43
2018-01-12T15:33:50.314Z,7.47
2018-01-12T15:36:18.692Z,7.73
2018-01-12T15:38:47.048Z,7.12
2018-01-12T15:41:15.606Z,6.91
2018-01-12T15:43:44.454Z,7.05
2018-01-12T15:46:12.947Z,6.92
2018-01-12T15:48:41.353Z,7.21
2018-01-12T15:51:09.671Z,7.63
2018-01-12T15:53:38.035Z,7.26
2018-01-12T15:56:06.439Z,6.80
2018-01-12T15:58:34.787Z,6.65
2018-01-12T16:01:03.138Z,7.30
2018-01-12T16:03:31.998Z,6.79
2018-01-12T16:06:00.365Z,6.95
2018-01-12T16:08:28.862Z,7.21
2018-01-12T16:10:57.352Z,7.48
2018-01-12T16:13:25.815Z,7.46
2018-01-12T16:15:54.285Z,7.60
2018-01-12T16:18:22.666Z,7.33
2018-01-12T16:20:51.011Z,7.38
2018-01-12T16:23:19.425Z,7.71
2018-01-12T16:25:47.805Z,7.55
2018-01-12T16:28:16.193Z,7.23
2018-01-12T16:30:44.552Z,6.93
2018-01-12T16:33:12.902Z,7.06
2018-01-12T16:35:41.319Z,7.38
2018-01-12T16:38:09.678Z,7.07
2018-01-12T16:40:38.041Z,7.34
2018-01-12T16:43:06.392Z,7.44
2018-01-12T16:45:34.764Z,7.15
2018-01-12T16:48:03.216Z,7.23
2018-01-12T16:50:31.575Z,7.70
2018-01-12T16:52:59.927Z,7.21
2018-01-12T16:55:28.361Z,7.37
2018-01-12T16:57:56.749Z,7.32
2018-01-12T17:00:25.235Z,7.44
2018-01-12T17:02:53.779Z,7.40
2018-01-12T17:05:22.259Z,7.15
2018-01-12T17:07:50.652Z,7.11
2018-01-12T17:10:19.048Z,7.27
2018-01-12T17:12:47.407Z,7.90
2018-01-12T17:15:15.772Z,8.26
2018-01-12T17:17:44.261Z,8.06
2018-01-12T17:20:12.669Z,7.71
2018-01-12T17:22:41.036Z,7.53
2018-01-12T17:25:09.392Z,7.47
2018-01-12T17:27:37.759Z,7.78
2018-01-12T17:30:06.126Z,7.95
2018-01-12T17:32:34.488Z,7.90
2018-01-12T17:35:03.233Z,7.24
2018-01-12T17:37:31.726Z,7.27
2018-01-12T17:40:00.083Z,6.97
2018-01-12T17:42:28.444Z,6.89
2018-01-12T17:44:56.791Z,6.89
2018-01-12T17:47:25.555Z,6.56
2018-01-12T17:49:54.008Z,6.60
2018-01-12T17:52:22.387Z,6.76
2018-01-12T17:54:50.767Z,7.24
2018-01-12T17:57:19.158Z,7.21
2018-01-12T17:59:47.518Z,7.23
2018-01-12T18:02:15.871Z,7.34
2018-01-12T18:04:44.227Z,7.36
2018-01-12T18:07:13.068Z,7.21
2018-01-12T18:09:41.531Z,7.04
2018-01-12T18:12:09.867Z,7.38
2018-01-12T18:14:38.234Z,7.35
2018-01-12T18:17:06.615Z,7.03
2018-01-12T18:19:35.046Z,7.10
2018-01-12T18:22:03.395Z,7.08
2018-01-12T18:24:32.151Z,7.06
2018-01-12T18:27:00.530Z,7.36
2018-01-12T18:29:28.904Z,7.08
2018-01-12T18:31:57.280Z,6.94
2018-01-12T18:34:25.635Z,6.96
2018-01-12T18:36:54.038Z,7.37
2018-01-12T18:39:22.507Z,7.71
2018-01-12T18:41:50.865Z,7.42
2018-01-12T18:44:19.219Z,6.98
2018-01-12T18:46:47.976Z,6.88
2018-01-12T18:49:16.327Z,7.45
2018-01-12T18:51:44.680Z,6.96
2018-01-12T18:54:13.088Z,6.81
2018-01-12T18:56:41.523Z,7.30
2018-01-12T18:59:10.283Z,7.15
2018-01-12T19:01:38.736Z,7.34
2018-01-12T19:04:07.223Z,7.09
2018-01-12T19:06:35.605Z,7.11
2018-01-12T19:09:03.957Z,7.46
2018-01-12T19:11:32.351Z,7.69
2018-01-12T19:14:00.735Z,7.17
2018-01-12T19:16:29.088Z,7.41
2018-01-12T19:18:57.672Z,7.51
2018-01-12T19:21:26.077Z,7.04
2018-01-12T19:23:54.422Z,7.21
2018-01-12T19:26:22.779Z,7.19
2018-01-12T19:28:51.532Z,7.42
2018-01-12T19:31:19.909Z,7.73
2018-01-12T19:33:48.265Z,7.30
2018-01-12T19:36:16.638Z,6.94
2018-01-12T19:38:45.038Z,6.38
2018-01-12T19:41:13.409Z,6.54
2018-01-12T19:43:41.759Z,6.75
2018-01-12T19:46:10.167Z,6.99
2018-01-12T19:48:38.529Z,7.03
2018-01-12T19:51:06.913Z,6.73
2018-01-12T19:53:35.268Z,6.70
2018-01-12T19:56:03.622Z,6.64
2018-01-12T19:58:32.400Z,6.28
2018-01-12T20:01:00.746Z,6.15
2018-01-12T20:03:29.097Z,6.61
2018-01-12T20:05:57.453Z,7.38
2018-01-12T20:08:26.200Z,7.08
2018-01-12T20:10:54.587Z,6.65
2018-01-12T20:13:22.954Z,7.12
2018-01-12T20:15:51.318Z,7.22
2018-01-12T20:18:19.666Z,6.90
2018-01-12T20:20:48.033Z,6.65
2018-01-12T20:23:16.771Z,6.98
2018-01-12T20:25:45.138Z,6.70
2018-01-12T20:28:13.488Z,7.29
2018-01-12T20:30:41.838Z,7.25
2018-01-12T20:33:10.191Z,6.76
2018-01-12T20:35:38.560Z,6.79
2018-01-12T20:38:06.918Z,7.01
2018-01-12T20:40:35.284Z,6.94
2018-01-12T20:43:03.631Z,6.95
2018-01-12T20:45:31.995Z,6.72
2018-01-12T20:48:00.354Z,7.22
2018-01-12T20:50:28.719Z,7.32
2018-01-12T20:52:57.070Z,7.22
2018-01-12T20:55:25.446Z,6.56
2018-01-12T20:57:53.804Z,6.54
2018-01-12T21:00:22.163Z,6.73
2018-01-12T21:02:50.514Z,6.90
2018-01-12T21:05:18.884Z,6.88
2018-01-12T21:07:47.227Z,6.63
2018-01-12T21:10:15.981Z,6.51
2018-01-12T21:12:44.339Z,5.99
2018-01-12T21:15:12.721Z,6.30
2018-01-12T21:17:41.096Z,6.41
2018-01-12T21:20:09.442Z,6.11
2018-01-12T21:22:38.198Z,6.36
2018-01-12T21:25:06.559Z,6.48
2018-01-12T21:27:34.918Z,6.47
2018-01-12T21:30:03.289Z,6.55
2018-01-12T21:32:31.639Z,6.29
2018-01-12T21:34:59.981Z,6.87
2018-01-12T21:37:28.432Z,6.89
2018-01-12T21:39:56.779Z,6.62
2018-01-12T21:42:25.542Z,6.66
2018-01-12T21:44:53.987Z,6.41
2018-01-12T21:47:22.347Z,6.79
2018-01-12T21:49:50.704Z,6.75
2018-01-12T21:52:19.068Z,6.73
2018-01-12T21:54:47.923Z,6.70
2018-01-12T21:57:16.285Z,6.75
2018-01-12T21:59:44.650Z,6.91
2018-01-12T22:02:13.021Z,6.62
2018-01-12T22:04:41.429Z,6.57
2018-01-12T22:07:09.800Z,6.15
2018-01-12T22:09:38.193Z,6.23
2018-01-12T22:12:06.667Z,6.13
2018-01-12T22:14:35.046Z,6.28
2018-01-12T22:17:03.416Z,6.24
2018-01-12T22:19:31.803Z,6.50
2018-01-12T22:22:00.156Z,6.29
2018-01-12T22:24:28.560Z,6.41
2018-01-12T22:26:56.945Z,6.49
2018-01-12T22:29:25.303Z,6.52
2018-01-12T22:31:53.672Z,6.45
2018-01-12T22:34:22.023Z,6.28
2018-01-12T22:36:50.379Z,6.48
2018-01-12T22:39:18.750Z,6.62
2018-01-12T22:41:47.316Z,6.15
2018-01-12T22:44:15.679Z,5.92
2018-01-12T22:46:44.054Z,5.73
2018-01-12T22:49:12.407Z,6.23
2018-01-12T22:51:40.772Z,6.33
2018-01-12T22:54:09.527Z,6.19
2018-01-12T22:56:38.003Z,5.55
2018-01-12T22:59:06.376Z,5.66
2018-01-12T23:01:34.730Z,6.24
2018-01-12T23:04:03.141Z,6.57
2018-01-12T23:06:31.564Z,6.05
2018-01-12T23:09:01.227Z,6.07
2018-01-12T23:11:29.655Z,5.86
2018-01-12T23:13:58.417Z,5.82
2018-01-12T23:16:26.771Z,6.05
2018-01-12T23:18:55.135Z,6.03
2018-01-12T23:21:23.534Z,6.41
2018-01-12T23:23:51.927Z,6.67
2018-01-12T23:26:20.395Z,6.53
2018-01-12T23:28:48.772Z,6.65
2018-01-12T23:31:17.143Z,6.90
2018-01-12T23:33:45.536Z,6.10
2018-01-12T23:36:13.941Z,5.94
2018-01-12T23:38:42.699Z,6.14
2018-01-12T23:41:11.080Z,5.83
2018-01-12T23:43:39.464Z,6.25
2018-01-12T23:46:07.841Z,6.29
2018-01-12T23:48:36.211Z,6.43
2018-01-12T23:51:04.695Z,6.72
2018-01-12T23:53:33.051Z,6.22
2018-01-12T23:56:01.436Z,5.73
2018-01-12T23:58:29.786Z,6.56
